Terminal Aerodrome Forecast
Issued by NWS Grand Rapids, MI

Home | Current Version | Previous Version | Text Only | Print | Product List | Glossary On
Versions: 1 2 3 4 5 6 7 8 9 10 11 12 13 14 15 16 17 18 19 20 21 22 23 24
000
FTUS43 KGRR 200540
TAFGRR
TAF
KGRR 200540Z 2006/2106 21012G21KT 5SM -RA BR OVC015
     FM200900 20012G18KT 5SM -RA BR OVC010 WS014/21050KT
     FM201100 21010KT 1 1/2SM -RA BR OVC008 WS014/21050KT
     FM201400 23008KT 1 1/2SM -RA BR OVC003
     FM210200 23007KT 1/2SM -RA FG OVC003=

USA.gov is the U.S. government's official web portal to all federal, state and local government web resources and services.